sensor_id;sensor_type;location;lat;lon;timestamp;P1;durP1;ratioP1;P2;durP2;ratioP2
35243;SDS011;37916;52.160;21.066;2022-11-15T00:04:34;22.80;;;14.00;;
35243;SDS011;37916;52.160;21.066;2022-11-15T00:14:35;27.20;;;15.95;;
35243;SDS011;37916;52.160;21.066;2022-11-15T00:24:35;26.92;;;15.77;;
35243;SDS011;37916;52.160;21.066;2022-11-15T00:34:36;31.58;;;17.38;;
35243;SDS011;37916;52.160;21.066;2022-11-15T00:44:36;31.17;;;18.30;;
35243;SDS011;37916;52.160;21.066;2022-11-15T00:54:37;32.45;;;18.60;;
35243;SDS011;37916;52.160;21.066;2022-11-15T01:04:37;36.47;;;20.60;;
35243;SDS011;37916;52.160;21.066;2022-11-15T01:14:38;31.70;;;19.48;;
35243;SDS011;37916;52.160;21.066;2022-11-15T01:24:38;34.15;;;19.55;;
35243;SDS011;37916;52.160;21.066;2022-11-15T01:34:39;37.50;;;20.25;;
35243;SDS011;37916;52.160;21.066;2022-11-15T01:44:44;32.90;;;18.50;;
35243;SDS011;37916;52.160;21.066;2022-11-15T01:54:50;37.67;;;19.65;;
35243;SDS011;37916;52.160;21.066;2022-11-15T02:05:07;36.50;;;19.30;;
35243;SDS011;37916;52.160;21.066;2022-11-15T02:15:08;35.03;;;19.17;;
35243;SDS011;37916;52.160;21.066;2022-11-15T02:35:47;35.38;;;17.25;;
35243;SDS011;37916;52.160;21.066;2022-11-15T02:45:54;34.67;;;19.50;;
35243;SDS011;37916;52.160;21.066;2022-11-15T02:56:04;35.45;;;19.60;;
35243;SDS011;37916;52.160;21.066;2022-11-15T03:06:11;36.47;;;20.23;;
35243;SDS011;37916;52.160;21.066;2022-11-15T03:26:35;42.47;;;22.83;;
35243;SDS011;37916;52.160;21.066;2022-11-15T03:36:39;43.90;;;22.90;;
35243;SDS011;37916;52.160;21.066;2022-11-15T03:46:46;39.28;;;21.95;;
35243;SDS011;37916;52.160;21.066;2022-11-15T03:56:52;39.67;;;21.70;;
35243;SDS011;37916;52.160;21.066;2022-11-15T04:06:53;42.65;;;21.88;;
35243;SDS011;37916;52.160;21.066;2022-11-15T04:16:53;38.20;;;21.40;;
35243;SDS011;37916;52.160;21.066;2022-11-15T04:26:54;40.22;;;21.38;;
35243;SDS011;37916;52.160;21.066;2022-11-15T04:36:54;45.33;;;21.92;;
35243;SDS011;37916;52.160;21.066;2022-11-15T04:47:13;44.33;;;21.80;;
35243;SDS011;37916;52.160;21.066;2022-11-15T04:57:14;40.60;;;19.92;;
35243;SDS011;37916;52.160;21.066;2022-11-15T05:07:15;42.85;;;21.65;;
35243;SDS011;37916;52.160;21.066;2022-11-15T05:17:21;39.92;;;20.40;;
35243;SDS011;37916;52.160;21.066;2022-11-15T05:27:22;40.90;;;20.33;;
35243;SDS011;37916;52.160;21.066;2022-11-15T05:37:23;38.22;;;19.27;;
35243;SDS011;37916;52.160;21.066;2022-11-15T05:47:24;41.25;;;21.13;;
35243;SDS011;37916;52.160;21.066;2022-11-15T05:57:27;41.38;;;20.30;;
35243;SDS011;37916;52.160;21.066;2022-11-15T06:07:28;43.60;;;21.08;;
35243;SDS011;37916;52.160;21.066;2022-11-15T06:17:30;43.22;;;20.45;;
35243;SDS011;37916;52.160;21.066;2022-11-15T06:27:31;42.53;;;19.50;;
35243;SDS011;37916;52.160;21.066;2022-11-15T06:37:33;40.33;;;18.90;;
35243;SDS011;37916;52.160;21.066;2022-11-15T06:47:33;42.70;;;19.83;;
35243;SDS011;37916;52.160;21.066;2022-11-15T06:57:34;47.25;;;20.63;;
35243;SDS011;37916;52.160;21.066;2022-11-15T07:07:35;33.17;;;17.08;;
35243;SDS011;37916;52.160;21.066;2022-11-15T07:17:36;34.80;;;17.15;;
35243;SDS011;37916;52.160;21.066;2022-11-15T07:27:36;34.03;;;17.50;;
35243;SDS011;37916;52.160;21.066;2022-11-15T07:37:39;37.97;;;18.20;;
35243;SDS011;37916;52.160;21.066;2022-11-15T07:47:40;38.72;;;17.45;;
35243;SDS011;37916;52.160;21.066;2022-11-15T07:57:44;32.38;;;16.58;;
35243;SDS011;37916;52.160;21.066;2022-11-15T08:07:45;27.08;;;14.15;;
35243;SDS011;37916;52.160;21.066;2022-11-15T08:17:46;24.67;;;13.38;;
35243;SDS011;37916;52.160;21.066;2022-11-15T08:27:46;29.58;;;14.50;;
35243;SDS011;37916;52.160;21.066;2022-11-15T08:37:47;31.50;;;15.65;;
35243;SDS011;37916;52.160;21.066;2022-11-15T08:47:48;27.55;;;14.65;;
35243;SDS011;37916;52.160;21.066;2022-11-15T08:57:48;29.35;;;14.07;;
35243;SDS011;37916;52.160;21.066;2022-11-15T09:07:52;25.52;;;13.65;;
35243;SDS011;37916;52.160;21.066;2022-11-15T09:17:57;32.05;;;15.07;;
35243;SDS011;37916;52.160;21.066;2022-11-15T09:27:59;27.13;;;13.25;;
35243;SDS011;37916;52.160;21.066;2022-11-15T09:37:59;30.73;;;16.45;;
35243;SDS011;37916;52.160;21.066;2022-11-15T09:48:08;33.50;;;16.70;;
35243;SDS011;37916;52.160;21.066;2022-11-15T09:58:21;28.03;;;15.80;;
35243;SDS011;37916;52.160;21.066;2022-11-15T10:29:05;30.08;;;18.10;;
35243;SDS011;37916;52.160;21.066;2022-11-15T10:39:07;29.42;;;16.20;;
35243;SDS011;37916;52.160;21.066;2022-11-15T10:49:25;28.67;;;15.98;;
35243;SDS011;37916;52.160;21.066;2022-11-15T10:59:33;32.05;;;17.98;;
35243;SDS011;37916;52.160;21.066;2022-11-15T11:09:37;29.80;;;16.50;;
35243;SDS011;37916;52.160;21.066;2022-11-15T11:19:43;30.48;;;17.55;;
35243;SDS011;37916;52.160;21.066;2022-11-15T11:29:54;33.13;;;17.83;;
35243;SDS011;37916;52.160;21.066;2022-11-15T11:40:07;32.67;;;18.08;;
35243;SDS011;37916;52.160;21.066;2022-11-15T11:50:30;31.80;;;18.58;;
35243;SDS011;37916;52.160;21.066;2022-11-15T12:00:33;33.58;;;19.08;;
35243;SDS011;37916;52.160;21.066;2022-11-15T12:10:41;34.92;;;19.63;;
35243;SDS011;37916;52.160;21.066;2022-11-15T12:20:51;36.33;;;18.95;;
35243;SDS011;37916;52.160;21.066;2022-11-15T12:41:20;38.42;;;19.98;;
35243;SDS011;37916;52.160;21.066;2022-11-15T12:52:04;34.22;;;20.00;;
35243;SDS011;37916;52.160;21.066;2022-11-15T13:11:50;38.78;;;21.52;;
35243;SDS011;37916;52.160;21.066;2022-11-15T13:21:51;36.30;;;22.50;;
35243;SDS011;37916;52.160;21.066;2022-11-15T13:32:16;40.28;;;21.95;;
35243;SDS011;37916;52.160;21.066;2022-11-15T13:42:18;41.03;;;23.52;;
35243;SDS011;37916;52.160;21.066;2022-11-15T13:52:20;43.73;;;23.63;;
35243;SDS011;37916;52.160;21.066;2022-11-15T14:02:26;46.72;;;25.40;;
35243;SDS011;37916;52.160;21.066;2022-11-15T14:12:32;42.92;;;23.15;;
35243;SDS011;37916;52.160;21.066;2022-11-15T14:22:34;43.20;;;23.38;;
35243;SDS011;37916;52.160;21.066;2022-11-15T14:32:41;40.13;;;22.90;;
35243;SDS011;37916;52.160;21.066;2022-11-15T14:42:43;37.42;;;22.20;;
35243;SDS011;37916;52.160;21.066;2022-11-15T14:52:45;45.38;;;24.80;;
35243;SDS011;37916;52.160;21.066;2022-11-15T15:02:47;43.05;;;24.27;;
35243;SDS011;37916;52.160;21.066;2022-11-15T15:12:52;49.38;;;27.55;;
35243;SDS011;37916;52.160;21.066;2022-11-15T15:22:53;52.42;;;28.00;;
35243;SDS011;37916;52.160;21.066;2022-11-15T15:32:53;49.70;;;26.02;;
35243;SDS011;37916;52.160;21.066;2022-11-15T15:42:54;44.45;;;24.15;;
35243;SDS011;37916;52.160;21.066;2022-11-15T15:52:55;53.30;;;25.85;;
35243;SDS011;37916;52.160;21.066;2022-11-15T16:02:59;50.65;;;26.08;;
35243;SDS011;37916;52.160;21.066;2022-11-15T16:13:00;57.00;;;26.67;;
35243;SDS011;37916;52.160;21.066;2022-11-15T16:23:01;60.65;;;28.42;;
35243;SDS011;37916;52.160;21.066;2022-11-15T16:33:06;62.95;;;31.20;;
35243;SDS011;37916;52.160;21.066;2022-11-15T16:43:07;64.78;;;28.10;;
35243;SDS011;37916;52.160;21.066;2022-11-15T16:53:08;52.60;;;25.40;;
35243;SDS011;37916;52.160;21.066;2022-11-15T17:03:08;57.15;;;26.75;;
35243;SDS011;37916;52.160;21.066;2022-11-15T17:13:13;57.05;;;26.23;;
35243;SDS011;37916;52.160;21.066;2022-11-15T17:23:13;59.03;;;27.25;;
35243;SDS011;37916;52.160;21.066;2022-11-15T17:33:14;62.08;;;28.25;;
35243;SDS011;37916;52.160;21.066;2022-11-15T17:43:15;52.15;;;24.67;;
35243;SDS011;37916;52.160;21.066;2022-11-15T17:53:15;56.25;;;25.77;;
35243;SDS011;37916;52.160;21.066;2022-11-15T18:03:18;60.28;;;25.77;;
35243;SDS011;37916;52.160;21.066;2022-11-15T18:13:19;57.58;;;24.33;;
35243;SDS011;37916;52.160;21.066;2022-11-15T18:23:20;57.65;;;27.23;;
35243;SDS011;37916;52.160;21.066;2022-11-15T18:33:20;55.30;;;23.10;;
35243;SDS011;37916;52.160;21.066;2022-11-15T18:43:27;48.70;;;22.67;;
35243;SDS011;37916;52.160;21.066;2022-11-15T18:53:32;47.45;;;18.25;;
35243;SDS011;37916;52.160;21.066;2022-11-15T19:03:34;55.08;;;23.42;;
35243;SDS011;37916;52.160;21.066;2022-11-15T19:13:37;44.00;;;20.27;;
35243;SDS011;37916;52.160;21.066;2022-11-15T19:23:39;42.38;;;18.45;;
35243;SDS011;37916;52.160;21.066;2022-11-15T19:33:41;36.35;;;17.17;;
35243;SDS011;37916;52.160;21.066;2022-11-15T19:43:43;36.20;;;14.13;;
35243;SDS011;37916;52.160;21.066;2022-11-15T19:53:47;35.15;;;16.05;;
35243;SDS011;37916;52.160;21.066;2022-11-15T20:03:52;33.17;;;14.68;;
35243;SDS011;37916;52.160;21.066;2022-11-15T20:13:58;35.33;;;15.32;;
35243;SDS011;37916;52.160;21.066;2022-11-15T20:24:17;32.88;;;15.77;;
35243;SDS011;37916;52.160;21.066;2022-11-15T20:34:17;35.53;;;16.00;;
35243;SDS011;37916;52.160;21.066;2022-11-15T20:44:21;31.10;;;15.18;;
35243;SDS011;37916;52.160;21.066;2022-11-15T20:54:22;24.47;;;12.60;;
35243;SDS011;37916;52.160;21.066;2022-11-15T21:04:23;21.33;;;11.02;;
35243;SDS011;37916;52.160;21.066;2022-11-15T21:14:26;23.85;;;11.43;;
35243;SDS011;37916;52.160;21.066;2022-11-15T21:24:27;24.88;;;13.27;;
35243;SDS011;37916;52.160;21.066;2022-11-15T21:34:30;20.27;;;11.85;;
35243;SDS011;37916;52.160;21.066;2022-11-15T21:44:30;25.20;;;9.57;;
35243;SDS011;37916;52.160;21.066;2022-11-15T21:54:31;20.70;;;10.35;;
35243;SDS011;37916;52.160;21.066;2022-11-15T22:04:32;21.23;;;10.23;;
35243;SDS011;37916;52.160;21.066;2022-11-15T22:14:32;21.70;;;11.25;;
35243;SDS011;37916;52.160;21.066;2022-11-15T22:24:33;22.08;;;11.40;;
35243;SDS011;37916;52.160;21.066;2022-11-15T22:34:34;24.45;;;11.98;;
35243;SDS011;37916;52.160;21.066;2022-11-15T22:44:34;22.88;;;11.18;;
35243;SDS011;37916;52.160;21.066;2022-11-15T22:54:35;33.72;;;15.20;;
35243;SDS011;37916;52.160;21.066;2022-11-15T23:04:35;35.25;;;15.32;;
35243;SDS011;37916;52.160;21.066;2022-11-15T23:14:36;26.73;;;12.52;;
35243;SDS011;37916;52.160;21.066;2022-11-15T23:24:37;33.48;;;13.46;;
35243;SDS011;37916;52.160;21.066;2022-11-15T23:34:39;32.47;;;13.13;;
35243;SDS011;37916;52.160;21.066;2022-11-15T23:44:41;31.37;;;12.40;;
35243;SDS011;37916;52.160;21.066;2022-11-15T23:54:42;26.88;;;12.85;;
